<?xml version="1.0" encoding="utf-8"?>
<gpx xmlns:xsi="http://www.w3.org/2001/XMLSchema-instance" xmlns:xsd="http://www.w3.org/2001/XMLSchema" version="1.1" creator="Shapelink.com" xmlns="http://www.topografix.com/GPX/1/1" xmlns:gpxtpx="http://www.garmin.com/xmlschemas/TrackPointExtension/v1">
  <metadata>
    <name>Övrigt 1.33 km, 2020-07-01</name>
    <desc></desc>
    <author><name>Marian Moron</name></author> 
    <time>2020-07-01T20:54:39Z</time>
  </metadata>
  <trk>
    <name>Övrigt 1.33 km, 2020-07-01</name>
    <trkseg>
      <trkpt lat="51.229524376216" lon="4.457800443169">
        <ele>45.6</ele>
        <time>2020-07-01T20:54:39Z</time>
      </trkpt>
      <trkpt lat="51.229470229142" lon="4.45810713689">
        <ele>1</ele>
        <time>2020-07-01T20:54:46Z</time>
      </trkpt>
      <trkpt lat="51.229210474061" lon="4.458083248475">
        <ele>6.6</ele>
        <time>2020-07-01T20:55:10Z</time>
      </trkpt>
      <trkpt lat="51.229074938738" lon="4.458115351152">
        <ele>0</ele>
        <time>2020-07-01T20:55:26Z</time>
      </trkpt>
      <trkpt lat="51.22863220678" lon="4.458258681642">
        <ele>0</ele>
        <time>2020-07-01T20:55:52Z</time>
      </trkpt>
      <trkpt lat="51.228615023885" lon="4.458246863163">
        <ele>0</ele>
        <time>2020-07-01T20:55:53Z</time>
      </trkpt>
      <trkpt lat="51.228489127747" lon="4.458055923481">
        <ele>0</ele>
        <time>2020-07-01T20:56:22Z</time>
      </trkpt>
      <trkpt lat="51.228433304293" lon="4.457676642506">
        <ele>0</ele>
        <time>2020-07-01T20:56:45Z</time>
      </trkpt>
      <trkpt lat="51.228251584701" lon="4.457325692353">
        <ele>0</ele>
        <time>2020-07-01T20:57:22Z</time>
      </trkpt>
      <trkpt lat="51.228169106805" lon="4.457221672974">
        <ele>0</ele>
        <time>2020-07-01T20:57:29Z</time>
      </trkpt>
      <trkpt lat="51.228109762953" lon="4.457214548359">
        <ele>1.2</ele>
        <time>2020-07-01T20:57:35Z</time>
      </trkpt>
      <trkpt lat="51.227870375889" lon="4.457367601853">
        <ele>6.6</ele>
        <time>2020-07-01T20:58:08Z</time>
      </trkpt>
      <trkpt lat="51.227751101452" lon="4.457433064492">
        <ele>7.6</ele>
        <time>2020-07-01T20:58:27Z</time>
      </trkpt>
      <trkpt lat="51.227539877572" lon="4.457584022511">
        <ele>8.4</ele>
        <time>2020-07-01T20:59:06Z</time>
      </trkpt>
      <trkpt lat="51.227398726376" lon="4.457648563141">
        <ele>8.2</ele>
        <time>2020-07-01T20:59:31Z</time>
      </trkpt>
      <trkpt lat="51.227181802804" lon="4.457795078753">
        <ele>7.8</ele>
        <time>2020-07-01T20:59:51Z</time>
      </trkpt>
      <trkpt lat="51.226798330879" lon="4.458043350631">
        <ele>8</ele>
        <time>2020-07-01T21:00:35Z</time>
      </trkpt>
      <trkpt lat="51.227002430144" lon="4.457962632934">
        <ele>7.8</ele>
        <time>2020-07-01T21:01:42Z</time>
      </trkpt>
      <trkpt lat="51.227013410433" lon="4.457956011233">
        <ele>7.6</ele>
        <time>2020-07-01T21:01:43Z</time>
      </trkpt>
      <trkpt lat="51.227058253598" lon="4.457920136701">
        <ele>7.6</ele>
        <time>2020-07-01T21:01:47Z</time>
      </trkpt>
      <trkpt lat="51.227311722254" lon="4.457650574797">
        <ele>5.2</ele>
        <time>2020-07-01T21:03:32Z</time>
      </trkpt>
      <trkpt lat="51.227423704438" lon="4.45757740081">
        <ele>6.2</ele>
        <time>2020-07-01T21:04:09Z</time>
      </trkpt>
      <trkpt lat="51.227752358737" lon="4.457347820569">
        <ele>0.6</ele>
        <time>2020-07-01T21:05:33Z</time>
      </trkpt>
      <trkpt lat="51.227833914624" lon="4.457274395125">
        <ele>0.8</ele>
        <time>2020-07-01T21:05:43Z</time>
      </trkpt>
      <trkpt lat="51.228014209293" lon="4.457205579726">
        <ele>3.4</ele>
        <time>2020-07-01T21:06:05Z</time>
      </trkpt>
      <trkpt lat="51.228296260228" lon="4.457135087947">
        <ele>9.6</ele>
        <time>2020-07-01T21:06:37Z</time>
      </trkpt>
      <trkpt lat="51.228307659612" lon="4.457032744948">
        <ele>8</ele>
        <time>2020-07-01T21:06:39Z</time>
      </trkpt>
      <trkpt lat="51.228292488373" lon="4.456871812468">
        <ele>5</ele>
        <time>2020-07-01T21:06:48Z</time>
      </trkpt>
      <trkpt lat="51.228019406071" lon="4.456360768025">
        <ele>0</ele>
        <time>2020-07-01T21:07:23Z</time>
      </trkpt>
      <trkpt lat="51.227829304579" lon="4.455669596551">
        <ele>0</ele>
        <time>2020-07-01T21:08:00Z</time>
      </trkpt>
      <trkpt lat="51.227759483352" lon="4.455546550259">
        <ele>0</ele>
        <time>2020-07-01T21:08:12Z</time>
      </trkpt>
      <trkpt lat="51.227678514198" lon="4.455210100793">
        <ele>0</ele>
        <time>2020-07-01T21:08:34Z</time>
      </trkpt>
      <trkpt lat="51.227808098372" lon="4.455366004133">
        <ele>0</ele>
        <time>2020-07-01T21:10:06Z</time>
      </trkpt>
      <trkpt lat="51.227843302352" lon="4.455436998826">
        <ele>0</ele>
        <time>2020-07-01T21:10:12Z</time>
      </trkpt>
      <trkpt lat="51.227859060324" lon="4.455522578025">
        <ele>0</ele>
        <time>2020-07-01T21:10:20Z</time>
      </trkpt>
      <trkpt lat="51.227914297045" lon="4.4557006934">
        <ele>0</ele>
        <time>2020-07-01T21:10:39Z</time>
      </trkpt>
      <trkpt lat="51.228023010288" lon="4.455862128794">
        <ele>0</ele>
        <time>2020-07-01T21:10:56Z</time>
      </trkpt>
      <trkpt lat="51.228051592567" lon="4.455933374944">
        <ele>0</ele>
        <time>2020-07-01T21:11:03Z</time>
      </trkpt>
      <trkpt lat="51.228147146227" lon="4.456347021709">
        <ele>4</ele>
        <time>2020-07-01T21:12:11Z</time>
      </trkpt>
      <trkpt lat="51.228273293822" lon="4.456681794795">
        <ele>2.8</ele>
        <time>2020-07-01T21:12:46Z</time>
      </trkpt>
      <trkpt lat="51.228543861554" lon="4.456882457481">
        <ele>0.8</ele>
        <time>2020-07-01T21:13:15Z</time>
      </trkpt>
      <trkpt lat="51.229006542434" lon="4.45691187795">
        <ele>7</ele>
        <time>2020-07-01T21:13:57Z</time>
      </trkpt>
      <trkpt lat="51.228915431181" lon="4.457037271174">
        <ele>12.8</ele>
        <time>2020-07-01T21:15:18Z</time>
      </trkpt>
      <trkpt lat="51.228522068614" lon="4.457328961294">
        <ele>0.2</ele>
        <time>2020-07-01T21:16:00Z</time>
      </trkpt>
      <trkpt lat="51.22854838778" lon="4.457919969063">
        <ele>0.8</ele>
        <time>2020-07-01T21:16:38Z</time>
      </trkpt>
      <trkpt lat="51.228470268472" lon="4.458017115284">
        <ele>1</ele>
        <time>2020-07-01T21:16:58Z</time>
      </trkpt>
      <trkpt lat="51.228468089178" lon="4.458070591806">
        <ele>1.4</ele>
        <time>2020-07-01T21:17:01Z</time>
      </trkpt>
      <trkpt lat="51.228598260085" lon="4.458300004409">
        <ele>8.2</ele>
        <time>2020-07-01T21:17:56Z</time>
      </trkpt>
      <trkpt lat="51.229022468044" lon="4.458077045869">
        <ele>5.2</ele>
        <time>2020-07-01T21:18:38Z</time>
      </trkpt>
      <trkpt lat="51.229458243025" lon="4.457945617677">
        <ele>8</ele>
        <time>2020-07-01T21:19:22Z</time>
      </trkpt>
      <trkpt lat="51.229769295334" lon="4.457868420378">
        <ele>8.4</ele>
        <time>2020-07-01T21:20:19Z</time>
      </trkpt>
    </trkseg>
  </trk>
</gpx>